createdAt,value
2019-02-22T00:01:37.227Z,8.66
2019-02-22T00:03:37.031Z,8.66
2019-02-22T00:05:37.133Z,8.55
2019-02-22T00:07:37.362Z,8.67
2019-02-22T00:09:37.208Z,8.59
2019-02-22T00:11:37.004Z,8.66
2019-02-22T00:13:37.230Z,8.49
2019-02-22T00:15:37.196Z,8.54
2019-02-22T00:17:37.053Z,8.61
2019-02-22T00:19:37.488Z,8.57
2019-02-22T00:21:37.283Z,8.65
2019-02-22T00:23:37.302Z,8.62
2019-02-22T00:25:37.305Z,8.68
2019-02-22T00:27:37.214Z,8.73
2019-02-22T00:29:37.120Z,8.72
2019-02-22T00:31:37.225Z,8.53
2019-02-22T00:33:36.888Z,8.73
2019-02-22T00:35:37.752Z,8.73
2019-02-22T00:37:37.251Z,8.74
2019-02-22T00:41:36.989Z,8.53
2019-02-22T00:43:37.246Z,8.57
2019-02-22T00:45:37.145Z,8.50
2019-02-22T00:47:37.179Z,8.42
2019-02-22T00:49:37.237Z,8.47
2019-02-22T00:51:37.222Z,8.45
2019-02-22T00:53:37.058Z,8.48
2019-02-22T00:55:37.048Z,8.47
2019-02-22T00:57:37.018Z,8.53
2019-02-22T00:59:37.091Z,8.62
2019-02-22T01:01:37.101Z,8.63
2019-02-22T01:03:37.318Z,8.72
2019-02-22T01:05:37.333Z,8.79
2019-02-22T01:07:37.281Z,8.80
2019-02-22T01:09:37.353Z,8.81
2019-02-22T01:11:38.150Z,8.82
2019-02-22T01:13:37.218Z,8.83
2019-02-22T01:15:37.076Z,8.84
2019-02-22T01:17:37.511Z,8.90
2019-02-22T01:19:37.412Z,8.87
2019-02-22T01:21:37.223Z,9.00
2019-02-22T01:23:37.642Z,8.89
2019-02-22T01:25:37.239Z,8.78
2019-02-22T01:27:37.003Z,8.91
2019-02-22T01:29:37.009Z,8.90
2019-02-22T01:31:37.493Z,8.86
2019-02-22T01:33:37.497Z,8.90
2019-02-22T01:35:37.213Z,8.87
2019-02-22T01:37:37.244Z,8.72
2019-02-22T01:39:37.131Z,8.81
2019-02-22T01:41:37.438Z,8.70
2019-02-22T01:43:37.143Z,8.55
2019-02-22T01:45:37.494Z,8.55
2019-02-22T01:47:37.116Z,8.55
2019-02-22T01:49:37.239Z,8.51
2019-02-22T01:51:37.092Z,8.58
2019-02-22T01:53:37.302Z,8.37
2019-02-22T01:55:37.595Z,8.45
2019-02-22T01:57:36.971Z,8.44
2019-02-22T01:59:36.964Z,8.39
2019-02-22T02:01:37.208Z,8.43
2019-02-22T02:03:37.360Z,8.38
2019-02-22T02:05:37.329Z,8.43
2019-02-22T02:07:37.062Z,8.44
2019-02-22T02:09:37.293Z,8.30
2019-02-22T02:11:37.267Z,8.19
2019-02-22T02:13:37.099Z,8.12
2019-02-22T02:15:37.534Z,8.09
2019-02-22T02:17:37.315Z,8.06
2019-02-22T02:19:37.160Z,7.98
2019-02-22T02:21:37.201Z,8.04
2019-02-22T02:23:37.112Z,7.97
2019-02-22T02:25:37.392Z,8.04
2019-02-22T02:27:37.555Z,8.06
2019-02-22T02:29:37.004Z,7.99
2019-02-22T02:31:37.422Z,7.94
2019-02-22T02:33:37.025Z,8.05
2019-02-22T02:35:37.450Z,7.90
2019-02-22T02:37:37.246Z,8.10
2019-02-22T02:39:37.427Z,8.30
2019-02-22T02:41:37.487Z,8.32
2019-02-22T02:43:37.292Z,8.30
2019-02-22T02:45:37.096Z,8.41
2019-02-22T02:47:37.326Z,8.42
2019-02-22T02:49:37.218Z,8.42
2019-02-22T02:51:37.448Z,8.42
2019-02-22T02:53:37.245Z,8.44
2019-02-22T02:55:37.362Z,8.50
2019-02-22T02:57:37.783Z,8.58
2019-02-22T02:59:37.134Z,8.51
2019-02-22T03:01:37.395Z,8.57
2019-02-22T03:03:37.204Z,8.55
2019-02-22T03:05:37.471Z,8.55
2019-02-22T03:07:37.399Z,8.51
2019-02-22T03:09:36.869Z,8.51
2019-02-22T03:11:37.344Z,8.57
2019-02-22T03:13:37.561Z,8.55
2019-02-22T03:15:37.485Z,8.53
2019-02-22T03:17:37.273Z,8.58
2019-02-22T03:19:37.200Z,8.58
2019-02-22T03:21:37.151Z,8.47
2019-02-22T03:23:37.617Z,8.69
2019-02-22T03:25:37.022Z,8.69
2019-02-22T03:27:37.642Z,8.60
2019-02-22T03:29:37.039Z,8.67
2019-02-22T03:31:37.010Z,8.66
2019-02-22T03:33:37.069Z,8.57
2019-02-22T03:35:37.074Z,8.47
2019-02-22T03:37:37.056Z,8.53
2019-02-22T03:39:40.100Z,8.64
2019-02-22T03:41:37.114Z,8.51
2019-02-22T03:43:37.733Z,8.54
2019-02-22T03:45:37.340Z,8.49
2019-02-22T03:47:37.086Z,8.54
2019-02-22T03:49:36.956Z,8.58
2019-02-22T03:51:38.192Z,8.47
2019-02-22T03:53:37.139Z,8.55
2019-02-22T03:55:37.198Z,8.46
2019-02-22T03:57:37.154Z,8.42
2019-02-22T03:59:37.117Z,8.50
2019-02-22T04:01:37.225Z,8.58
2019-02-22T04:03:37.034Z,8.51
2019-02-22T04:05:37.379Z,8.49
2019-02-22T04:07:37.411Z,8.53
2019-02-22T04:09:37.278Z,8.44
2019-02-22T04:11:45.625Z,8.45
2019-02-22T04:13:38.285Z,8.49
2019-02-22T04:15:37.007Z,8.61
2019-02-22T04:17:37.115Z,8.51
2019-02-22T04:19:37.432Z,8.54
2019-02-22T04:21:37.016Z,8.48
2019-02-22T04:23:37.153Z,8.49
2019-02-22T04:25:37.582Z,8.54
2019-02-22T04:27:37.339Z,8.51
2019-02-22T04:29:37.160Z,8.51
2019-02-22T04:31:37.809Z,8.52
2019-02-22T04:33:37.616Z,8.53
2019-02-22T04:35:37.326Z,8.56
2019-02-22T04:37:36.954Z,8.51
2019-02-22T04:39:37.249Z,8.46
2019-02-22T04:41:37.045Z,8.55
2019-02-22T04:43:37.075Z,8.49
2019-02-22T04:45:37.077Z,8.49
2019-02-22T04:47:37.193Z,8.48
2019-02-22T04:49:37.506Z,8.54
2019-02-22T04:51:37.316Z,8.55
2019-02-22T04:53:37.124Z,8.58
2019-02-22T04:55:37.326Z,8.52
2019-02-22T04:57:37.302Z,8.58
2019-02-22T04:59:37.159Z,8.63
2019-02-22T05:01:37.316Z,8.59
2019-02-22T05:03:37.349Z,8.50
2019-02-22T05:05:37.397Z,8.50
2019-02-22T05:07:37.417Z,8.58
2019-02-22T05:09:37.213Z,8.59
2019-02-22T05:11:37.223Z,8.54
2019-02-22T05:13:37.215Z,8.61
2019-02-22T05:15:37.423Z,8.60
2019-02-22T05:17:37.360Z,8.56
2019-02-22T05:19:37.528Z,8.53
2019-02-22T05:21:37.238Z,8.62
2019-02-22T05:23:37.297Z,8.64
2019-02-22T05:25:37.104Z,8.50
2019-02-22T05:27:37.288Z,8.46
2019-02-22T05:29:37.077Z,8.58
2019-02-22T05:31:37.337Z,8.58
2019-02-22T05:33:37.232Z,8.43
2019-02-22T05:35:37.366Z,8.52
2019-02-22T05:37:37.131Z,8.51
2019-02-22T05:39:37.386Z,8.52
2019-02-22T05:41:37.373Z,8.58
2019-02-22T05:43:37.199Z,8.52
2019-02-22T05:45:37.215Z,8.63
2019-02-22T05:47:37.341Z,8.66
2019-02-22T05:49:37.462Z,8.49
2019-02-22T05:51:37.379Z,8.58
2019-02-22T05:53:37.471Z,8.54
2019-02-22T05:55:37.270Z,8.49
2019-02-22T05:57:37.913Z,8.61
2019-02-22T05:59:37.238Z,8.61
2019-02-22T06:01:37.407Z,8.55
2019-02-22T06:03:37.428Z,8.55
2019-02-22T06:05:37.171Z,8.52
2019-02-22T06:07:37.503Z,8.58
2019-02-22T06:09:37.154Z,8.55
2019-02-22T06:11:37.121Z,8.54
2019-02-22T06:13:37.173Z,8.52
2019-02-22T06:15:37.400Z,8.45
2019-02-22T06:17:37.282Z,8.45
2019-02-22T06:19:37.291Z,8.59
2019-02-22T06:21:37.484Z,8.49
2019-02-22T06:23:37.333Z,8.46
2019-02-22T06:25:37.368Z,8.56
2019-02-22T06:27:37.115Z,8.44
2019-02-22T06:29:37.295Z,8.50
2019-02-22T06:31:37.360Z,8.46
2019-02-22T06:33:37.183Z,8.42
2019-02-22T06:35:37.211Z,8.42
2019-02-22T06:37:37.418Z,8.45
2019-02-22T06:39:37.275Z,8.49
2019-02-22T06:41:37.508Z,8.49
2019-02-22T06:43:37.960Z,8.51
2019-02-22T06:45:37.266Z,8.46
2019-02-22T06:47:37.256Z,8.47
2019-02-22T06:49:37.601Z,8.51
2019-02-22T06:51:37.503Z,8.43
2019-02-22T06:53:37.318Z,8.46
2019-02-22T06:55:37.354Z,8.51
2019-02-22T06:57:37.346Z,8.61
2019-02-22T06:59:37.335Z,8.56
2019-02-22T07:01:37.558Z,8.63
2019-02-22T07:03:37.482Z,8.54
2019-02-22T07:05:37.581Z,8.55
2019-02-22T07:07:37.385Z,8.50
2019-02-22T07:09:37.499Z,8.59
2019-02-22T07:11:37.950Z,8.75
2019-02-22T07:13:37.176Z,8.72
2019-02-22T07:15:37.235Z,8.67
2019-02-22T07:17:37.447Z,8.79
2019-02-22T07:19:37.764Z,8.86
2019-02-22T07:21:51.624Z,8.82
2019-02-22T07:23:37.383Z,8.76
2019-02-22T07:25:37.529Z,8.98
2019-02-22T07:27:37.437Z,8.93
2019-02-22T07:29:37.326Z,8.94
2019-02-22T07:31:37.733Z,8.98
2019-02-22T07:33:37.337Z,9.05
2019-02-22T07:35:37.348Z,9.08
2019-02-22T07:37:37.560Z,9.11
2019-02-22T07:39:37.476Z,9.14
2019-02-22T07:41:37.586Z,9.16
2019-02-22T07:43:37.590Z,9.03
2019-02-22T07:45:37.815Z,9.13
2019-02-22T07:47:37.630Z,9.17
2019-02-22T07:49:37.441Z,9.13
2019-02-22T07:51:37.344Z,9.07
2019-02-22T07:53:37.249Z,9.04
2019-02-22T07:55:37.508Z,9.14
2019-02-22T07:57:39.965Z,9.04
2019-02-22T07:59:37.332Z,9.10
2019-02-22T08:01:46.905Z,9.11
2019-02-22T08:03:37.500Z,9.03
2019-02-22T08:05:37.277Z,9.23
2019-02-22T08:07:37.655Z,9.16
2019-02-22T08:09:37.286Z,9.17
2019-02-22T08:11:37.472Z,9.22
2019-02-22T08:13:37.469Z,9.20
2019-02-22T08:15:37.216Z,9.32
2019-02-22T08:17:37.447Z,9.22
2019-02-22T08:19:37.494Z,9.35
2019-02-22T08:21:37.512Z,9.41
2019-02-22T08:23:37.628Z,9.37
2019-02-22T08:25:37.844Z,9.47
2019-02-22T08:27:40.018Z,9.54
2019-02-22T08:29:38.322Z,9.52
2019-02-22T08:31:37.263Z,9.53
2019-02-22T08:33:37.221Z,9.53
2019-02-22T08:35:37.487Z,9.64
2019-02-22T08:37:37.500Z,9.67
2019-02-22T08:39:37.467Z,9.69
2019-02-22T08:41:37.318Z,9.70
2019-02-22T08:43:37.538Z,9.57
2019-02-22T08:45:37.323Z,9.69
2019-02-22T08:47:37.703Z,9.70
2019-02-22T08:49:37.574Z,9.72
2019-02-22T08:51:37.347Z,9.83
2019-02-22T08:53:37.799Z,9.84
2019-02-22T08:55:37.555Z,9.78
2019-02-22T08:57:37.410Z,10.04
2019-02-22T08:59:37.625Z,10.07
2019-02-22T09:01:37.637Z,10.13
2019-02-22T09:03:49.449Z,10.24
2019-02-22T09:05:37.275Z,10.30
2019-02-22T09:07:37.268Z,10.46
2019-02-22T09:09:37.434Z,10.58
2019-02-22T09:11:37.294Z,10.71
2019-02-22T09:13:43.651Z,10.75
2019-02-22T09:15:37.707Z,10.82
2019-02-22T09:17:37.524Z,10.78
2019-02-22T09:19:37.339Z,10.72
2019-02-22T09:21:37.548Z,10.83
2019-02-22T09:23:37.572Z,10.94
2019-02-22T09:25:37.566Z,10.83
2019-02-22T09:27:37.476Z,10.98
2019-02-22T09:29:37.396Z,11.07
2019-02-22T09:31:37.604Z,11.21
2019-02-22T09:33:37.619Z,11.29
2019-02-22T09:35:37.645Z,11.42
2019-02-22T09:37:37.371Z,11.50
2019-02-22T09:39:37.877Z,11.59
2019-02-22T09:41:37.671Z,11.45
2019-02-22T09:43:37.668Z,11.48
2019-02-22T09:45:37.482Z,11.42
2019-02-22T09:47:37.265Z,11.41
2019-02-22T09:49:37.567Z,11.46
2019-02-22T09:51:37.524Z,11.53
2019-02-22T09:53:37.427Z,11.54
2019-02-22T09:55:37.848Z,11.71
2019-02-22T09:57:37.454Z,11.84
2019-02-22T09:59:37.672Z,11.87
2019-02-22T10:01:37.679Z,11.87
2019-02-22T10:03:37.382Z,12.16
2019-02-22T10:05:37.495Z,12.36
2019-02-22T10:07:37.422Z,12.56
2019-02-22T10:09:37.523Z,12.43
2019-02-22T10:11:37.278Z,12.35
2019-02-22T10:13:37.513Z,12.37
2019-02-22T10:15:37.329Z,12.51
2019-02-22T10:17:37.697Z,12.47
2019-02-22T10:19:37.579Z,12.58
2019-02-22T10:21:37.391Z,12.65
2019-02-22T10:23:37.616Z,12.59
2019-02-22T10:25:37.651Z,12.42
2019-02-22T10:27:37.380Z,12.27
2019-02-22T10:29:37.533Z,12.23
2019-02-22T10:31:37.654Z,12.27
2019-02-22T10:33:37.561Z,12.11
2019-02-22T10:35:37.481Z,12.03
2019-02-22T10:37:37.543Z,12.01
2019-02-22T10:39:37.400Z,11.89
2019-02-22T10:41:37.612Z,11.71
2019-02-22T10:43:37.537Z,11.65
2019-02-22T10:45:37.632Z,11.66
2019-02-22T10:47:37.949Z,11.62
2019-02-22T10:49:37.752Z,11.58
2019-02-22T10:51:37.560Z,11.48
2019-02-22T10:53:37.989Z,11.46
2019-02-22T10:55:37.931Z,11.26
2019-02-22T10:57:37.602Z,11.32
2019-02-22T10:59:37.435Z,11.15
2019-02-22T11:01:37.638Z,11.16
2019-02-22T11:03:37.533Z,11.04
2019-02-22T11:05:37.548Z,10.97
2019-02-22T11:07:37.859Z,11.02
2019-02-22T11:09:37.461Z,10.89
2019-02-22T11:11:37.477Z,10.91
2019-02-22T11:13:37.802Z,10.99
2019-02-22T11:15:37.812Z,10.94
2019-02-22T11:17:37.620Z,10.91
2019-02-22T11:19:37.547Z,10.82
2019-02-22T11:21:37.427Z,10.69
2019-02-22T11:23:37.446Z,10.71
2019-02-22T11:25:37.432Z,10.52
2019-02-22T11:27:37.671Z,10.59
2019-02-22T11:29:37.390Z,10.51
2019-02-22T11:31:37.997Z,10.49
2019-02-22T11:33:37.602Z,10.50
2019-02-22T11:35:37.717Z,10.36
2019-02-22T11:37:37.532Z,10.42
2019-02-22T11:39:37.696Z,10.33
2019-02-22T11:41:38.363Z,10.32
2019-02-22T11:43:37.759Z,10.26
2019-02-22T11:45:37.707Z,10.32
2019-02-22T11:47:37.333Z,10.27
2019-02-22T11:49:37.596Z,10.45
2019-02-22T11:51:37.606Z,10.41
2019-02-22T11:53:37.626Z,10.40
2019-02-22T11:55:37.724Z,10.36
2019-02-22T11:57:37.648Z,10.41
2019-02-22T11:59:37.755Z,10.38
2019-02-22T12:01:37.616Z,10.38
2019-02-22T12:03:37.684Z,10.28
2019-02-22T12:05:37.689Z,10.19
2019-02-22T12:07:37.594Z,10.25
2019-02-22T12:09:37.406Z,10.25
2019-02-22T12:11:37.833Z,10.31
2019-02-22T12:13:37.626Z,10.19
2019-02-22T12:15:37.442Z,10.20
2019-02-22T12:17:37.650Z,10.20
2019-02-22T12:19:37.662Z,10.24
2019-02-22T12:21:37.482Z,10.31
2019-02-22T12:23:37.624Z,10.30
2019-02-22T12:25:37.700Z,10.34
2019-02-22T12:27:37.639Z,10.17
2019-02-22T12:29:37.727Z,10.23
2019-02-22T12:31:37.612Z,10.27
2019-02-22T12:33:37.438Z,10.36
2019-02-22T12:35:37.384Z,10.20
2019-02-22T12:37:37.448Z,10.42
2019-02-22T12:39:37.397Z,10.43
2019-02-22T12:41:37.791Z,10.53
2019-02-22T12:43:37.500Z,10.52
2019-02-22T12:45:37.529Z,10.54
2019-02-22T12:47:37.832Z,10.61
2019-02-22T12:49:40.055Z,10.54
2019-02-22T12:51:37.615Z,10.54
2019-02-22T12:53:37.457Z,10.65
2019-02-22T12:55:37.684Z,10.67
2019-02-22T12:57:37.577Z,10.68
2019-02-22T12:59:37.607Z,10.68
2019-02-22T13:01:39.300Z,10.73
2019-02-22T13:03:37.729Z,10.81
2019-02-22T13:05:37.629Z,10.70
2019-02-22T13:07:37.621Z,10.64
2019-02-22T13:09:37.375Z,10.62
2019-02-22T13:11:37.488Z,10.64
2019-02-22T13:13:37.753Z,10.60
2019-02-22T13:15:37.990Z,10.54
2019-02-22T13:17:37.792Z,10.44
2019-02-22T13:19:37.606Z,10.52
2019-02-22T13:21:37.619Z,10.46
2019-02-22T13:23:37.526Z,10.52
2019-02-22T13:25:38.152Z,10.42
2019-02-22T13:27:37.818Z,10.39
2019-02-22T13:29:37.572Z,10.31
2019-02-22T13:31:37.771Z,10.35
2019-02-22T13:33:37.478Z,10.34
2019-02-22T13:35:37.702Z,10.48
2019-02-22T13:37:37.651Z,10.43
2019-02-22T13:39:37.749Z,10.46
2019-02-22T13:41:38.263Z,10.34
2019-02-22T13:43:38.259Z,10.32
2019-02-22T13:45:37.856Z,10.30
2019-02-22T13:47:37.873Z,10.47
2019-02-22T13:49:37.530Z,10.32
2019-02-22T13:51:37.529Z,10.34
2019-02-22T13:53:37.492Z,10.26
2019-02-22T13:55:37.715Z,10.32
2019-02-22T13:57:37.634Z,10.31
2019-02-22T13:59:37.818Z,10.27
2019-02-22T14:01:38.023Z,10.16
2019-02-22T14:03:38.266Z,10.16
2019-02-22T14:05:38.282Z,10.35
2019-02-22T14:07:38.093Z,10.30
2019-02-22T14:09:38.049Z,10.29
2019-02-22T14:11:37.911Z,10.22
2019-02-22T14:13:37.603Z,10.37
2019-02-22T14:15:38.409Z,10.34
2019-02-22T14:17:37.944Z,10.36
2019-02-22T14:19:37.949Z,10.38
2019-02-22T14:21:37.692Z,10.37
2019-02-22T14:23:38.180Z,10.58
2019-02-22T14:25:37.991Z,10.72
2019-02-22T14:27:38.210Z,10.69
2019-02-22T14:29:38.152Z,10.75
2019-02-22T14:31:38.030Z,10.84
2019-02-22T14:33:38.003Z,10.76
2019-02-22T14:35:38.038Z,10.82
2019-02-22T14:37:38.186Z,10.77
2019-02-22T14:39:38.947Z,10.96
2019-02-22T14:41:37.947Z,10.88
2019-02-22T14:43:37.993Z,11.04
2019-02-22T14:45:48.539Z,11.03
2019-02-22T14:47:38.627Z,10.90
2019-02-22T14:49:38.069Z,10.81
2019-02-22T14:51:38.144Z,10.78
2019-02-22T14:53:38.082Z,10.73
2019-02-22T14:55:38.268Z,10.64
2019-02-22T14:57:38.177Z,10.59
2019-02-22T14:59:38.193Z,10.58
2019-02-22T15:01:37.997Z,10.50
2019-02-22T15:03:38.282Z,10.51
2019-02-22T15:05:38.223Z,10.44
2019-02-22T15:07:38.033Z,10.41
2019-02-22T15:09:37.909Z,10.36
2019-02-22T15:11:37.962Z,10.37
2019-02-22T15:13:38.074Z,10.35
2019-02-22T15:15:38.283Z,10.24
2019-02-22T15:17:38.148Z,10.14
2019-02-22T15:19:37.791Z,10.23
2019-02-22T15:21:38.284Z,10.05
2019-02-22T15:23:38.839Z,10.15
2019-02-22T15:25:38.138Z,10.16
2019-02-22T15:27:38.015Z,10.06
2019-02-22T15:29:38.267Z,10.11
2019-02-22T15:31:37.780Z,10.17
2019-02-22T15:33:38.288Z,10.05
2019-02-22T15:35:38.098Z,10.02
2019-02-22T15:37:38.053Z,10.03
2019-02-22T15:39:37.818Z,10.08
2019-02-22T15:41:38.265Z,10.02
2019-02-22T15:43:38.015Z,9.97
2019-02-22T15:45:38.095Z,9.82
2019-02-22T15:47:37.850Z,10.01
2019-02-22T15:49:37.907Z,9.87
2019-02-22T15:51:38.025Z,10.01
2019-02-22T15:53:38.405Z,9.80
2019-02-22T15:55:38.021Z,9.85
2019-02-22T15:57:37.808Z,9.78
2019-02-22T15:59:38.226Z,9.73
2019-02-22T16:01:38.040Z,9.85
2019-02-22T16:03:38.259Z,9.87
2019-02-22T16:05:38.427Z,9.85
2019-02-22T16:07:44.598Z,9.75
2019-02-22T16:09:38.238Z,9.81
2019-02-22T16:11:38.100Z,9.71
2019-02-22T16:13:38.291Z,9.66
2019-02-22T16:15:40.619Z,9.72
2019-02-22T16:17:38.337Z,9.58
2019-02-22T16:19:38.119Z,9.59
2019-02-22T16:21:38.365Z,9.58
2019-02-22T16:23:38.337Z,9.65
2019-02-22T16:25:37.996Z,9.55
2019-02-22T16:27:37.982Z,9.49
2019-02-22T16:29:38.308Z,9.52
2019-02-22T16:31:38.278Z,9.38
2019-02-22T16:33:38.230Z,9.43
2019-02-22T16:35:38.130Z,9.40
2019-02-22T16:37:38.090Z,9.30
2019-02-22T16:39:38.361Z,9.33
2019-02-22T16:41:38.302Z,9.26
2019-02-22T16:43:41.746Z,9.32
2019-02-22T16:45:39.115Z,9.26
2019-02-22T16:47:40.327Z,9.31
2019-02-22T16:49:38.242Z,9.31
2019-02-22T16:51:38.113Z,9.23
2019-02-22T16:53:38.144Z,9.21
2019-02-22T16:55:37.703Z,9.15
2019-02-22T16:57:37.663Z,9.16
2019-02-22T16:59:37.677Z,9.08
2019-02-22T17:01:38.081Z,9.08
2019-02-22T17:03:37.689Z,9.05
2019-02-22T17:05:37.903Z,8.85
2019-02-22T17:07:38.118Z,8.88
2019-02-22T17:09:37.929Z,8.91
2019-02-22T17:11:38.265Z,8.73
2019-02-22T17:13:37.675Z,8.72
2019-02-22T17:15:37.872Z,8.65
2019-02-22T17:17:37.794Z,8.50
2019-02-22T17:19:37.676Z,8.46
2019-02-22T17:21:37.791Z,8.39
2019-02-22T17:23:37.802Z,8.31
2019-02-22T17:25:38.019Z,7.94
2019-02-22T17:27:38.234Z,8.07
2019-02-22T17:29:38.048Z,7.84
2019-02-22T17:31:38.136Z,7.74
2019-02-22T17:33:38.161Z,7.68
2019-02-22T17:35:38.379Z,7.59
2019-02-22T17:37:37.987Z,7.57
2019-02-22T17:39:38.355Z,7.37
2019-02-22T17:41:38.722Z,7.38
2019-02-22T17:43:38.252Z,7.21
2019-02-22T17:45:38.146Z,7.27
2019-02-22T17:47:38.251Z,7.04
2019-02-22T17:49:38.121Z,6.85
2019-02-22T17:51:37.689Z,6.86
2019-02-22T17:53:37.884Z,6.84
2019-02-22T17:55:38.489Z,6.60
2019-02-22T17:57:37.798Z,6.54
2019-02-22T17:59:38.426Z,6.61
2019-02-22T18:01:38.273Z,6.59
2019-02-22T18:03:38.343Z,6.52
2019-02-22T18:05:37.924Z,6.61
2019-02-22T18:07:38.253Z,6.44
2019-02-22T18:09:38.381Z,6.53
2019-02-22T18:11:38.585Z,6.37
2019-02-22T18:13:37.994Z,6.34
2019-02-22T18:15:37.794Z,6.20
2019-02-22T18:17:38.024Z,6.16
2019-02-22T18:19:37.822Z,6.16
2019-02-22T18:21:37.620Z,6.16
2019-02-22T18:23:37.896Z,6.25
2019-02-22T18:25:37.853Z,6.02
2019-02-22T18:27:38.279Z,5.99
2019-02-22T18:29:38.089Z,6.00
2019-02-22T18:31:38.099Z,5.93
2019-02-22T18:33:37.876Z,5.83
2019-02-22T18:35:39.042Z,5.83
2019-02-22T18:37:38.436Z,5.79
2019-02-22T18:39:38.239Z,5.76
2019-02-22T18:41:37.948Z,5.79
2019-02-22T18:43:38.037Z,5.84
2019-02-22T18:45:37.868Z,5.75
2019-02-22T18:47:37.928Z,5.85
2019-02-22T18:49:38.087Z,5.97
2019-02-22T18:51:38.007Z,5.74
2019-02-22T18:53:38.426Z,5.72
2019-02-22T18:55:37.771Z,5.83
2019-02-22T18:57:37.893Z,5.83
2019-02-22T18:59:38.293Z,5.75
2019-02-22T19:01:38.172Z,5.63
2019-02-22T19:03:37.868Z,5.57
2019-02-22T19:05:37.697Z,5.49
2019-02-22T19:07:38.503Z,5.39
2019-02-22T19:09:38.007Z,5.27
2019-02-22T19:11:38.409Z,5.17
2019-02-22T19:13:38.041Z,5.11
2019-02-22T19:15:38.213Z,5.09
2019-02-22T19:17:38.200Z,5.17
2019-02-22T19:19:38.374Z,5.04
2019-02-22T19:21:37.677Z,4.98
2019-02-22T19:23:38.343Z,5.03
2019-02-22T19:25:37.784Z,5.09
2019-02-22T19:27:38.120Z,5.02
2019-02-22T19:29:38.488Z,5.02
2019-02-22T19:31:38.447Z,5.12
2019-02-22T19:33:37.848Z,4.99
2019-02-22T19:35:38.170Z,5.04
2019-02-22T19:37:38.180Z,4.97
2019-02-22T19:39:38.305Z,4.93
2019-02-22T19:41:39.019Z,4.95
2019-02-22T19:43:38.494Z,4.84
2019-02-22T19:45:38.120Z,4.84
2019-02-22T19:47:41.968Z,4.82
2019-02-22T19:49:38.243Z,4.75
2019-02-22T19:51:38.152Z,4.76
2019-02-22T19:53:38.774Z,4.65
2019-02-22T19:55:38.380Z,4.78
2019-02-22T19:57:38.132Z,4.75
2019-02-22T19:59:38.395Z,4.70
2019-02-22T20:01:38.210Z,4.65
2019-02-22T20:03:38.105Z,4.72
2019-02-22T20:05:38.336Z,4.59
2019-02-22T20:07:38.262Z,4.40
2019-02-22T20:09:38.251Z,4.54
2019-02-22T20:11:38.370Z,4.53
2019-02-22T20:13:38.178Z,4.45
2019-02-22T20:15:38.288Z,4.54
2019-02-22T20:17:40.341Z,4.38
2019-02-22T20:19:38.210Z,4.33
2019-02-22T20:21:38.188Z,4.34
2019-02-22T20:23:38.357Z,4.23
2019-02-22T20:25:38.395Z,4.21
2019-02-22T20:27:38.353Z,4.13
2019-02-22T20:29:38.682Z,3.97
2019-02-22T20:31:38.395Z,4.00
2019-02-22T20:33:38.269Z,4.00
2019-02-22T20:35:38.442Z,3.94
2019-02-22T20:37:38.960Z,3.85
2019-02-22T20:39:38.108Z,4.02
2019-02-22T20:41:38.119Z,4.03
2019-02-22T20:43:37.935Z,3.94
2019-02-22T20:45:38.124Z,3.95
2019-02-22T20:47:38.285Z,3.97
2019-02-22T20:49:37.972Z,3.96
2019-02-22T20:51:37.953Z,3.99
2019-02-22T20:53:37.983Z,4.12
2019-02-22T20:55:37.802Z,4.10
2019-02-22T20:57:37.931Z,4.15
2019-02-22T20:59:38.041Z,4.01
2019-02-22T21:01:38.151Z,4.19
2019-02-22T21:03:38.156Z,4.08
2019-02-22T21:05:37.888Z,4.31
2019-02-22T21:07:37.879Z,4.25
2019-02-22T21:09:37.985Z,4.24
2019-02-22T21:11:38.128Z,4.25
2019-02-22T21:13:38.005Z,4.24
2019-02-22T21:15:37.820Z,4.19
2019-02-22T21:17:37.963Z,4.09
2019-02-22T21:19:38.048Z,4.07
2019-02-22T21:21:37.849Z,4.04
2019-02-22T21:23:37.960Z,4.17
2019-02-22T21:25:37.876Z,4.11
2019-02-22T21:27:37.643Z,4.06
2019-02-22T21:29:39.279Z,3.96
2019-02-22T21:31:37.969Z,4.01
2019-02-22T21:33:38.230Z,3.95
2019-02-22T21:35:37.727Z,4.01
2019-02-22T21:37:39.189Z,4.03
2019-02-22T21:39:37.956Z,4.08
2019-02-22T21:41:37.662Z,4.05
2019-02-22T21:43:37.637Z,4.05
2019-02-22T21:45:37.932Z,4.08
2019-02-22T21:47:37.974Z,4.08
2019-02-22T21:49:38.023Z,4.11
2019-02-22T21:51:38.028Z,4.02
2019-02-22T21:53:38.852Z,3.90
2019-02-22T21:55:37.741Z,4.03
2019-02-22T21:57:37.634Z,4.09
2019-02-22T21:59:37.747Z,4.05
2019-02-22T22:01:37.773Z,4.01
2019-02-22T22:03:39.158Z,4.00
2019-02-22T22:05:37.887Z,3.96
2019-02-22T22:07:37.920Z,3.99
2019-02-22T22:09:40.765Z,4.09
2019-02-22T22:11:38.247Z,4.04
2019-02-22T22:13:37.647Z,4.22
2019-02-22T22:15:37.871Z,4.28
2019-02-22T22:17:37.899Z,4.38
2019-02-22T22:19:37.884Z,4.44
2019-02-22T22:21:37.892Z,4.47
2019-02-22T22:23:37.697Z,4.49
2019-02-22T22:25:38.023Z,4.55
2019-02-22T22:27:37.842Z,4.45
2019-02-22T22:29:38.040Z,4.48
2019-02-22T22:31:37.768Z,4.35
2019-02-22T22:33:38.073Z,4.48
2019-02-22T22:35:37.721Z,4.47
2019-02-22T22:37:37.682Z,4.50
2019-02-22T22:39:37.741Z,4.40
2019-02-22T22:41:37.908Z,4.49
2019-02-22T22:43:37.929Z,4.41
2019-02-22T22:45:38.242Z,4.41
2019-02-22T22:47:38.049Z,4.53
2019-02-22T22:49:38.061Z,4.53
2019-02-22T22:51:37.853Z,4.53
2019-02-22T22:53:37.881Z,4.56
2019-02-22T22:55:37.905Z,4.66
2019-02-22T22:57:37.747Z,4.57
2019-02-22T22:59:37.831Z,4.65
2019-02-22T23:01:38.129Z,4.61
2019-02-22T23:03:37.732Z,4.57
2019-02-22T23:05:37.800Z,4.55
2019-02-22T23:07:37.749Z,4.51
2019-02-22T23:09:37.963Z,4.40
2019-02-22T23:11:37.929Z,4.41
2019-02-22T23:13:37.850Z,4.32
2019-02-22T23:15:38.313Z,4.30
2019-02-22T23:17:38.118Z,4.33
2019-02-22T23:19:38.098Z,4.20
2019-02-22T23:21:37.933Z,4.15
2019-02-22T23:23:38.125Z,4.19
2019-02-22T23:25:37.962Z,4.05
2019-02-22T23:27:37.915Z,4.22
2019-02-22T23:29:38.289Z,4.08
2019-02-22T23:31:38.104Z,4.21
2019-02-22T23:33:37.905Z,4.03
2019-02-22T23:35:37.919Z,4.10
2019-02-22T23:37:38.129Z,3.96
2019-02-22T23:39:38.146Z,3.99
2019-02-22T23:41:37.946Z,3.94
2019-02-22T23:43:38.274Z,3.92
2019-02-22T23:45:38.386Z,4.02
2019-02-22T23:47:37.709Z,4.06
2019-02-22T23:49:37.790Z,4.16
2019-02-22T23:51:38.414Z,4.12
2019-02-22T23:53:37.816Z,4.18
2019-02-22T23:55:37.983Z,4.15
2019-02-22T23:57:38.353Z,4.19
2019-02-22T23:59:38.271Z,4.17
